This is the latest recevied weather packets stored in our database for station/object KK4WXG. If no packets are shown the sender has not sent any weather packets the latest 10 day(s).
| Time | Temp. | Humidity | Pressure | Rain* | Wind** | Luminosity | Snow |
|---|---|---|---|---|---|---|---|
| 1777935809 | 22.78° C | 39% | 1008.4 hPa | 0 mm | - | 72 W/m² | - |
| 1777935507 | 22.78° C | 39% | 1008.4 hPa | 0 mm | - | 65 W/m² | - |
| 1777935203 | 22.78° C | 38% | 1008.4 hPa | 0 mm | - | 81 W/m² | - |
| 1777934901 | 22.78° C | 37% | 1008.4 hPa | 0 mm | - | 97 W/m² | - |
| 1777934598 | 23.33° C | 37% | 1008.5 hPa | 0 mm | - | 111 W/m² | - |
| 1777934294 | 23.33° C | 36% | 1008.3 hPa | 0 mm | - | 109 W/m² | - |
| 1777933990 | 23.89° C | 36% | 1008.3 hPa | 0 mm | - | 136 W/m² | - |
| 1777933687 | 23.89° C | 36% | 1008.4 hPa | 0 mm | - | 152 W/m² | - |
| 1777933384 | 23.89° C | 35% | 1008.3 hPa | 0 mm | - | 97 W/m² | - |
| 1777933082 | 23.89° C | 36% | 1008.5 hPa | 0 mm | - | 208 W/m² | - |
| 1777932778 | 23.89° C | 35% | 1008.4 hPa | 0 mm | - | 249 W/m² | - |
| 1777932475 | 23.89° C | 35% | 1008.5 hPa | 0 mm | - | 257 W/m² | - |
| 1777932172 | 23.89° C | 36% | 1008.4 hPa | 0 mm | - | 194 W/m² | - |
| 1777931869 | 24.44° C | 36% | 1008.3 hPa | 0 mm | - | 329 W/m² | - |
| 1777931566 | 23.89° C | 36% | 1008.2 hPa | 0 mm | - | 139 W/m² | - |
| 1777931262 | 24.44° C | 33% | 1008.4 hPa | 0 mm | - | 165 W/m² | - |
| 1777930958 | 25° C | 33% | 1008.2 hPa | 0 mm | - | 367 W/m² | - |
| 1777930655 | 25° C | 34% | 1008.2 hPa | 0 mm | - | 415 W/m² | - |
| 1777930351 | 25° C | 35% | 1008.3 hPa | 0 mm | - | 453 W/m² | - |
| 1777930049 | 25° C | 35% | 1008.3 hPa | 0 mm | - | 344 W/m² | - |
| 1777929745 | 25° C | 35% | 1008.4 hPa | 0 mm | - | 454 W/m² | - |
| 1777929443 | 25° C | 35% | 1008.3 hPa | 0 mm | - | 544 W/m² | - |
| 1777929139 | 24.44° C | 34% | 1008.2 hPa | 0 mm | - | 296 W/m² | - |
| 1777928836 | 24.44° C | 36% | 1008.3 hPa | 0 mm | - | 532 W/m² | - |
| 1777928533 | 25° C | 34% | 1008.2 hPa | 0 mm | - | 546 W/m² | - |
* Rain latest hour (hover to see other rain measurements)
** Current wind speed in m/s (hover to see current wind gust speed)